WetterOnline ( http://www.wetteronline.de )

Wetter aktuell Ellscheid

Aktuelles Wetter: Nürburg-Barweiler (488m)

6-stündlich | Neueste Meldungen
Ortszeit Temperatur Wetter
Do, 20.09. 14:00 22.0° C leicht bewölkt
Do, 20.09. 8:00 13.5° C wolkig
Do, 20.09. 2:00 15.7° C bewölkt
Mi, 19.09. 20:00 21.6° C bedeckt
Mi, 19.09. 14:00 23.4° C bewölkt
Mi, 19.09. 8:00 14.8° C bedeckt
Mi, 19.09. 2:00 17.6° C bedeckt
Di, 18.09. 20:00 23.2° C bewölkt
Ortszeit Temperatur Wetter
Do, 20.09. 18:00 23.2° C leicht bewölkt
Do, 20.09. 17:50 23.2° C wolkig
Do, 20.09. 17:40 23.3° C wolkig
Do, 20.09. 17:30 23.9° C wolkig
Do, 20.09. 17:20 23.9° C wolkig
Do, 20.09. 17:10 23.9° C wolkig
Do, 20.09. 17:00 23.7° C leicht bewölkt
Do, 20.09. 16:30 23.9° C leicht bewölkt
Do, 20.09. 16:00 23.5° C leicht bewölkt
Do, 20.09. 15:30 23.3° C wolkig
Do, 20.09. 15:00 23.2° C leicht bewölkt
Ortszeit Relative Feuchte Sichtweite
Do, 20.09. 14:00 45% 19 km
Do, 20.09. 8:00 85% 18 km
Do, 20.09. 2:00 79% 24 km
Mi, 19.09. 20:00 55% 35 km
Mi, 19.09. 14:00 51% 26 km
Mi, 19.09. 8:00 88% 16 km
Mi, 19.09. 2:00 73% 30 km
Di, 18.09. 20:00 40% 60 km
Ortszeit Relative Feuchte Sichtweite
Do, 20.09. 18:00 37% 45 km
Do, 20.09. 17:50 37% -
Do, 20.09. 17:40 38% -
Do, 20.09. 17:30 37% 23 km
Do, 20.09. 17:20 37% -
Do, 20.09. 17:10 37% -
Do, 20.09. 17:00 34% 29 km
Do, 20.09. 16:30 37% 21 km
Do, 20.09. 16:00 37% 22 km
Do, 20.09. 15:30 37% 19 km
Do, 20.09. 15:00 42% 16 km
Ortszeit Niederschlagsmenge Niederschlagsart
Do, 20.09. 14:00 0.0 l/m2 in 6 Std. -
Do, 20.09. 8:00 0.0 l/m2 in 12 Std. -
Do, 20.09. 2:00 0.0 l/m2 in 6 Std. -
Mi, 19.09. 20:00 0.0 l/m2 in 12 Std. -
Mi, 19.09. 14:00 0.0 l/m2 in 6 Std. -
Mi, 19.09. 8:00 0.0 l/m2 in 12 Std. -
Mi, 19.09. 2:00 0.0 l/m2 in 6 Std. -
Di, 18.09. 20:00 0.0 l/m2 in 12 Std. -
Ortszeit Niederschlagsmenge Niederschlagsart
Do, 20.09. 18:00 0.0 l/m2 in 1 Std. -
Do, 20.09. 17:50 keine Meldung -
Do, 20.09. 17:40 keine Meldung -
Do, 20.09. 17:30 0.0 l/m2 in 1 Std. -
Do, 20.09. 17:20 keine Meldung -
Do, 20.09. 17:10 keine Meldung -
Do, 20.09. 17:00 0.0 l/m2 in 1 Std. -
Do, 20.09. 16:30 0.0 l/m2 in 1 Std. -
Do, 20.09. 16:00 0.0 l/m2 in 1 Std. -
Do, 20.09. 15:30 0.0 l/m2 in 1 Std. -
Do, 20.09. 15:00 0.0 l/m2 in 1 Std. -
Ortszeit Stärke Spitze Richtung
km/h Bft. km/h Grad Sektor
Do, 20.09. 14:00 17 3 37 230° SW
Do, 20.09. 8:00 6 1 15 180° S
Do, 20.09. 2:00 4 1 25 200° S
Mi, 19.09. 20:00 11 2 43 220° SW
Mi, 19.09. 14:00 20 4 41 220° SW
Mi, 19.09. 8:00 7 2 11 220° SW
Mi, 19.09. 2:00 0 0 18 - -
Di, 18.09. 20:00 11 2 40 240° SW
Ortszeit Stärke Spitze Richtung
km/h Bft. km/h Grad Sektor
Do, 20.09. 18:00 14 3 32 200° S
Do, 20.09. 17:50 14 3 - 200° S
Do, 20.09. 17:40 14 3 - 220° SW
Do, 20.09. 17:30 13 3 30 220° SW
Do, 20.09. 17:20 13 3 - 220° SW
Do, 20.09. 17:10 17 3 - 230° SW
Do, 20.09. 17:00 14 3 32 230° SW
Do, 20.09. 16:30 14 3 32 230° SW
Do, 20.09. 16:00 17 3 37 220° SW
Do, 20.09. 15:30 20 4 33 230° SW
Do, 20.09. 15:00 17 3 31 230° SW
Ortszeit Untergrenze Bedeckung Gattung
total tief tief mittel hoch
Do, 20.09. 14:00 8700 m 8/8 0/8 - - -
Do, 20.09. 8:00 1230 m 6/8 - - - -
Do, 20.09. 2:00 4500 m 8/8 7/8 - - -
Mi, 19.09. 20:00 - 8/8 - - - -
Mi, 19.09. 14:00 1200 m 7/8 7/8 - - -
Mi, 19.09. 8:00 - 8/8 - - - -
Mi, 19.09. 2:00 4200 m 8/8 8/8 - - -
Di, 18.09. 20:00 4200 m 7/8 7/8 - - -
Ortszeit Bedeckungsgrad in Achtel und Wolkenuntergrenze
Do, 20.09. 18:00 6(9000m) 8(10500m)
Do, 20.09. 17:50 6(9000m) 8(10500m)
Do, 20.09. 17:40 4(9000m) 8(10500m)
Do, 20.09. 17:30 7(10500m) 8(10500m)
Do, 20.09. 17:20 7(10500m)
Do, 20.09. 17:10 1(9000m) 7(10500m)
Do, 20.09. 17:00 3(9000m) 6(9000m) 8(10500m)
Do, 20.09. 16:30 3(10500m) 4(10500m)
Do, 20.09. 16:00 8(10500m)
Do, 20.09. 15:30 7(10500m) 7(10500m)
Do, 20.09. 15:00 2(8700m) 7(10500m)
Ortszeit Luftdruck NN (hPa) Tendenz (hPa in 3 Std.)
Do, 20.09. 14:00 1017 - 0,9
Do, 20.09. 8:00 1020 - 0,1
Do, 20.09. 2:00 1020 0,0
Mi, 19.09. 20:00 1018 + 0,6
Mi, 19.09. 14:00 1017 - 0,6
Mi, 19.09. 8:00 1019 + 0,6
Mi, 19.09. 2:00 1017 + 0,5
Di, 18.09. 20:00 1014 + 0,9
Ortszeit Luftdruck NN (hPa) Tendenz (hPa in 3 Std.)
Do, 20.09. 18:00 1015 - 1,7
Do, 20.09. 17:50 1015 keine Meldung
Do, 20.09. 17:40 1015 keine Meldung
Do, 20.09. 17:30 1015 - 1,7
Do, 20.09. 17:20 1015 keine Meldung
Do, 20.09. 17:10 1015 keine Meldung
Do, 20.09. 17:00 1015 - 1,6
Do, 20.09. 16:30 1015 - 1,5
Do, 20.09. 16:00 1016 - 1,6
Do, 20.09. 15:30 1016 - 1,5
Do, 20.09. 15:00 1016 - 1,4
Ortszeit Schneehöhe (cm)
Do, 20.09. 14:00 -
Do, 20.09. 8:00 -
Do, 20.09. 2:00 -
Mi, 19.09. 20:00 -
Mi, 19.09. 14:00 -
Mi, 19.09. 8:00 -
Mi, 19.09. 2:00 -
Di, 18.09. 20:00 -
Ortszeit Schneehöhe (cm)
Do, 20.09. 18:00 -
Do, 20.09. 17:50 -
Do, 20.09. 17:40 -
Do, 20.09. 17:30 -
Do, 20.09. 17:20 -
Do, 20.09. 17:10 -
Do, 20.09. 17:00 -
Do, 20.09. 16:30 -
Do, 20.09. 16:00 -
Do, 20.09. 15:30 -
Do, 20.09. 15:00 -
Link zu dieser Seite / Seite empfehlen

Das Wetter in ...